FNBG/BUG METAR and TAF weather

Enter ICAO airport designator
Station Type Date Time Source
FNBG METAR 2018/09/21 12:00 UTC NOAA

FNBG 211200Z 32008KT CAVOK 24/18 Q1011


Station Type Date Time Source
FNBG Decoded METAR 2018/09/21 12:00 UTC NOAA

Monbaca Benguela , Angola (FNBG) 12-35S 013-25E 4M
Sep 21, 2018 - 08:00 AM EDT / 2018.09.21 1200 UTC
Wind: from the NW (320 degrees) at 9 MPH (8 KT):0
Visibility: greater than 7 mile(s):0
Temperature: 75 F (24 C)
Dew Point: 64 F (18 C)
Relative Humidity: 69%
Pressure (altimeter): 29.85 in. Hg (1011 hPa)
ob: FNBG 211200Z 32008KT CAVOK 24/18 Q1011
cycle: 12

Station Type Date Time Source
FNBG TAF 2018/09/21 12:00 UTC NOAA

TAF FNBG 211000Z 2112/2124 34011KT 9999 BKN015
TEMPO 2114/2118 28006KT 9999 FEW015 BKN020
BECMG 2120/2122 6000 NSC


Example: see airport list